sensor_id;sensor_type;location;lat;lon;timestamp;temperature;humidity
10864;DHT22;5485;37.558;126.950;2023-04-19T00:00:19;24.50;1.00
10864;DHT22;5485;37.558;126.950;2023-04-19T00:02:46;24.50;1.00
10864;DHT22;5485;37.558;126.950;2023-04-19T00:05:16;24.50;1.00
10864;DHT22;5485;37.558;126.950;2023-04-19T00:07:43;24.80;1.00
10864;DHT22;5485;37.558;126.950;2023-04-19T00:10:10;25.20;1.00
10864;DHT22;5485;37.558;126.950;2023-04-19T00:12:37;25.20;1.00
10864;DHT22;5485;37.558;126.950;2023-04-19T00:15:04;25.00;1.00
10864;DHT22;5485;37.558;126.950;2023-04-19T00:17:33;25.40;1.00
10864;DHT22;5485;37.558;126.950;2023-04-19T00:20:00;25.40;1.00
10864;DHT22;5485;37.558;126.950;2023-04-19T00:22:27;25.50;1.00
10864;DHT22;5485;37.558;126.950;2023-04-19T00:24:54;25.80;1.00
10864;DHT22;5485;37.558;126.950;2023-04-19T00:27:21;25.70;1.00
10864;DHT22;5485;37.558;126.950;2023-04-19T00:29:48;25.70;1.00
10864;DHT22;5485;37.558;126.950;2023-04-19T00:32:15;25.50;1.00
10864;DHT22;5485;37.558;126.950;2023-04-19T00:34:41;26.20;1.00
10864;DHT22;5485;37.558;126.950;2023-04-19T00:37:09;26.10;1.00
10864;DHT22;5485;37.558;126.950;2023-04-19T00:39:36;26.10;1.00
10864;DHT22;5485;37.558;126.950;2023-04-19T00:42:03;25.60;1.00
10864;DHT22;5485;37.558;126.950;2023-04-19T00:44:30;25.40;1.00
10864;DHT22;5485;37.558;126.950;2023-04-19T00:46:59;25.80;1.00
10864;DHT22;5485;37.558;126.950;2023-04-19T00:49:26;25.90;1.00
10864;DHT22;5485;37.558;126.950;2023-04-19T00:51:53;26.20;1.00
10864;DHT22;5485;37.558;126.950;2023-04-19T00:54:21;25.40;1.00
10864;DHT22;5485;37.558;126.950;2023-04-19T00:56:49;25.50;1.00
10864;DHT22;5485;37.558;126.950;2023-04-19T00:59:17;25.70;1.00
10864;DHT22;5485;37.558;126.950;2023-04-19T01:01:44;26.20;1.00
10864;DHT22;5485;37.558;126.950;2023-04-19T01:04:11;26.00;1.00
10864;DHT22;5485;37.558;126.950;2023-04-19T01:06:39;26.60;1.00
10864;DHT22;5485;37.558;126.950;2023-04-19T01:09:06;26.60;1.00
10864;DHT22;5485;37.558;126.950;2023-04-19T01:11:33;26.50;1.00
10864;DHT22;5485;37.558;126.950;2023-04-19T01:14:00;26.80;1.00
10864;DHT22;5485;37.558;126.950;2023-04-19T01:16:27;26.90;1.00
10864;DHT22;5485;37.558;126.950;2023-04-19T01:18:54;26.80;1.00
10864;DHT22;5485;37.558;126.950;2023-04-19T01:21:21;26.10;1.00
10864;DHT22;5485;37.558;126.950;2023-04-19T01:23:49;26.40;1.00
10864;DHT22;5485;37.558;126.950;2023-04-19T01:26:21;26.20;1.00
10864;DHT22;5485;37.558;126.950;2023-04-19T01:28:48;26.00;1.00
10864;DHT22;5485;37.558;126.950;2023-04-19T01:31:15;26.60;1.00
10864;DHT22;5485;37.558;126.950;2023-04-19T01:33:43;26.50;1.00
10864;DHT22;5485;37.558;126.950;2023-04-19T01:36:10;26.40;1.00
10864;DHT22;5485;37.558;126.950;2023-04-19T01:38:38;26.70;1.00
10864;DHT22;5485;37.558;126.950;2023-04-19T01:41:05;26.60;1.00
10864;DHT22;5485;37.558;126.950;2023-04-19T01:43:33;26.60;1.00
10864;DHT22;5485;37.558;126.950;2023-04-19T01:45:59;26.40;1.00
10864;DHT22;5485;37.558;126.950;2023-04-19T01:48:26;26.90;1.00
10864;DHT22;5485;37.558;126.950;2023-04-19T01:50:53;26.30;1.00
10864;DHT22;5485;37.558;126.950;2023-04-19T01:53:20;26.10;1.00
10864;DHT22;5485;37.558;126.950;2023-04-19T01:55:48;26.20;1.00
10864;DHT22;5485;37.558;126.950;2023-04-19T01:58:15;25.90;1.00
10864;DHT22;5485;37.558;126.950;2023-04-19T02:00:45;26.00;1.00
10864;DHT22;5485;37.558;126.950;2023-04-19T02:03:12;26.10;1.00
10864;DHT22;5485;37.558;126.950;2023-04-19T02:05:39;26.50;1.00
10864;DHT22;5485;37.558;126.950;2023-04-19T02:08:06;26.60;1.00
10864;DHT22;5485;37.558;126.950;2023-04-19T02:10:33;27.30;1.00
10864;DHT22;5485;37.558;126.950;2023-04-19T02:13:00;26.70;1.00
10864;DHT22;5485;37.558;126.950;2023-04-19T02:15:26;26.40;1.00
10864;DHT22;5485;37.558;126.950;2023-04-19T02:17:53;26.50;1.00
10864;DHT22;5485;37.558;126.950;2023-04-19T02:20:20;26.10;1.00
10864;DHT22;5485;37.558;126.950;2023-04-19T02:22:49;25.70;1.00
10864;DHT22;5485;37.558;126.950;2023-04-19T02:25:15;25.30;1.00
10864;DHT22;5485;37.558;126.950;2023-04-19T02:27:45;25.50;1.00
10864;DHT22;5485;37.558;126.950;2023-04-19T02:30:13;25.90;1.00
10864;DHT22;5485;37.558;126.950;2023-04-19T02:32:40;26.10;1.00
10864;DHT22;5485;37.558;126.950;2023-04-19T02:35:07;26.10;1.00
10864;DHT22;5485;37.558;126.950;2023-04-19T02:37:34;25.70;1.00
10864;DHT22;5485;37.558;126.950;2023-04-19T02:40:01;26.20;1.00
10864;DHT22;5485;37.558;126.950;2023-04-19T02:42:28;26.00;1.00
10864;DHT22;5485;37.558;126.950;2023-04-19T02:44:55;26.20;1.00
10864;DHT22;5485;37.558;126.950;2023-04-19T02:47:22;26.20;1.00
10864;DHT22;5485;37.558;126.950;2023-04-19T02:49:49;25.50;1.00
10864;DHT22;5485;37.558;126.950;2023-04-19T02:52:16;25.40;1.00
10864;DHT22;5485;37.558;126.950;2023-04-19T02:54:43;25.40;1.00
10864;DHT22;5485;37.558;126.950;2023-04-19T02:57:13;25.40;1.00
10864;DHT22;5485;37.558;126.950;2023-04-19T02:59:40;25.20;1.00
10864;DHT22;5485;37.558;126.950;2023-04-19T03:02:07;25.00;1.00
10864;DHT22;5485;37.558;126.950;2023-04-19T03:04:34;25.10;1.00
10864;DHT22;5485;37.558;126.950;2023-04-19T03:07:01;24.80;1.00
10864;DHT22;5485;37.558;126.950;2023-04-19T03:09:28;24.50;1.00
10864;DHT22;5485;37.558;126.950;2023-04-19T03:11:55;24.30;1.00
10864;DHT22;5485;37.558;126.950;2023-04-19T03:14:22;24.10;1.00
10864;DHT22;5485;37.558;126.950;2023-04-19T03:16:52;23.80;1.00
10864;DHT22;5485;37.558;126.950;2023-04-19T03:19:19;23.80;1.00
10864;DHT22;5485;37.558;126.950;2023-04-19T03:21:46;23.60;1.00
10864;DHT22;5485;37.558;126.950;2023-04-19T03:24:13;23.50;1.00
10864;DHT22;5485;37.558;126.950;2023-04-19T03:26:40;23.40;1.00
10864;DHT22;5485;37.558;126.950;2023-04-19T03:29:07;23.20;1.00
10864;DHT22;5485;37.558;126.950;2023-04-19T03:31:34;23.20;1.00
10864;DHT22;5485;37.558;126.950;2023-04-19T03:34:02;23.30;1.00
10864;DHT22;5485;37.558;126.950;2023-04-19T03:36:28;23.20;1.00
10864;DHT22;5485;37.558;126.950;2023-04-19T03:38:56;23.30;1.00
10864;DHT22;5485;37.558;126.950;2023-04-19T03:41:24;23.30;1.00
10864;DHT22;5485;37.558;126.950;2023-04-19T03:43:54;23.30;1.00
10864;DHT22;5485;37.558;126.950;2023-04-19T03:46:23;23.30;1.00
10864;DHT22;5485;37.558;126.950;2023-04-19T03:48:50;23.50;1.00
10864;DHT22;5485;37.558;126.950;2023-04-19T03:51:18;23.60;1.00
10864;DHT22;5485;37.558;126.950;2023-04-19T03:53:45;23.70;1.00
10864;DHT22;5485;37.558;126.950;2023-04-19T03:56:13;23.80;1.00
10864;DHT22;5485;37.558;126.950;2023-04-19T03:58:40;23.80;1.00
10864;DHT22;5485;37.558;126.950;2023-04-19T04:01:06;23.90;1.00
10864;DHT22;5485;37.558;126.950;2023-04-19T04:03:34;24.00;1.00
10864;DHT22;5485;37.558;126.950;2023-04-19T04:06:06;24.10;1.00
10864;DHT22;5485;37.558;126.950;2023-04-19T04:08:33;24.20;1.00
10864;DHT22;5485;37.558;126.950;2023-04-19T04:11:00;24.30;1.00
10864;DHT22;5485;37.558;126.950;2023-04-19T04:13:27;24.30;1.00
10864;DHT22;5485;37.558;126.950;2023-04-19T04:15:54;24.30;1.00
10864;DHT22;5485;37.558;126.950;2023-04-19T04:18:21;24.50;1.00
10864;DHT22;5485;37.558;126.950;2023-04-19T04:20:48;24.60;1.00
10864;DHT22;5485;37.558;126.950;2023-04-19T04:23:15;24.90;1.00
10864;DHT22;5485;37.558;126.950;2023-04-19T04:25:42;24.90;1.00
10864;DHT22;5485;37.558;126.950;2023-04-19T04:28:09;24.80;1.00
10864;DHT22;5485;37.558;126.950;2023-04-19T04:30:36;24.80;1.00
10864;DHT22;5485;37.558;126.950;2023-04-19T04:33:03;24.80;1.00
10864;DHT22;5485;37.558;126.950;2023-04-19T04:35:30;24.80;1.00
10864;DHT22;5485;37.558;126.950;2023-04-19T04:37:57;24.90;1.00
10864;DHT22;5485;37.558;126.950;2023-04-19T04:40:24;25.00;1.00
10864;DHT22;5485;37.558;126.950;2023-04-19T04:42:51;25.10;1.00
10864;DHT22;5485;37.558;126.950;2023-04-19T04:45:19;25.30;1.00
10864;DHT22;5485;37.558;126.950;2023-04-19T04:47:46;25.40;1.00
10864;DHT22;5485;37.558;126.950;2023-04-19T04:50:13;25.50;1.00
10864;DHT22;5485;37.558;126.950;2023-04-19T04:52:40;25.50;1.00
10864;DHT22;5485;37.558;126.950;2023-04-19T04:55:07;25.50;1.00
10864;DHT22;5485;37.558;126.950;2023-04-19T04:57:34;25.50;1.00
10864;DHT22;5485;37.558;126.950;2023-04-19T05:00:02;25.60;1.00
10864;DHT22;5485;37.558;126.950;2023-04-19T05:02:30;25.70;1.00
10864;DHT22;5485;37.558;126.950;2023-04-19T05:04:57;25.70;1.00
10864;DHT22;5485;37.558;126.950;2023-04-19T05:07:26;25.80;1.00
10864;DHT22;5485;37.558;126.950;2023-04-19T05:09:53;25.90;1.00
10864;DHT22;5485;37.558;126.950;2023-04-19T05:12:23;26.00;1.00
10864;DHT22;5485;37.558;126.950;2023-04-19T05:14:49;26.10;1.00
10864;DHT22;5485;37.558;126.950;2023-04-19T05:17:16;26.20;1.00
10864;DHT22;5485;37.558;126.950;2023-04-19T05:19:43;26.20;1.00
10864;DHT22;5485;37.558;126.950;2023-04-19T05:22:10;26.30;1.00
10864;DHT22;5485;37.558;126.950;2023-04-19T05:24:37;26.40;1.00
10864;DHT22;5485;37.558;126.950;2023-04-19T05:27:07;26.50;1.00
10864;DHT22;5485;37.558;126.950;2023-04-19T05:29:34;26.50;1.00
10864;DHT22;5485;37.558;126.950;2023-04-19T05:32:01;26.50;1.00
10864;DHT22;5485;37.558;126.950;2023-04-19T05:34:28;26.60;1.00
10864;DHT22;5485;37.558;126.950;2023-04-19T05:36:55;26.70;1.00
10864;DHT22;5485;37.558;126.950;2023-04-19T05:39:22;26.90;1.00
10864;DHT22;5485;37.558;126.950;2023-04-19T05:41:49;27.10;1.00
10864;DHT22;5485;37.558;126.950;2023-04-19T05:44:16;27.30;1.00
10864;DHT22;5485;37.558;126.950;2023-04-19T05:46:43;27.20;1.00
10864;DHT22;5485;37.558;126.950;2023-04-19T05:49:10;27.30;1.00
10864;DHT22;5485;37.558;126.950;2023-04-19T05:51:37;27.10;1.00
10864;DHT22;5485;37.558;126.950;2023-04-19T05:54:04;27.20;1.00
10864;DHT22;5485;37.558;126.950;2023-04-19T05:56:31;27.20;1.00
10864;DHT22;5485;37.558;126.950;2023-04-19T05:58:58;27.30;1.00
10864;DHT22;5485;37.558;126.950;2023-04-19T06:01:26;27.40;1.00
10864;DHT22;5485;37.558;126.950;2023-04-19T06:03:53;27.40;1.00
10864;DHT22;5485;37.558;126.950;2023-04-19T06:06:22;27.50;1.00
10864;DHT22;5485;37.558;126.950;2023-04-19T06:08:50;27.60;1.00
10864;DHT22;5485;37.558;126.950;2023-04-19T06:11:16;27.50;1.00
10864;DHT22;5485;37.558;126.950;2023-04-19T06:13:43;27.50;1.00
10864;DHT22;5485;37.558;126.950;2023-04-19T06:16:11;27.60;1.00
10864;DHT22;5485;37.558;126.950;2023-04-19T06:18:37;27.60;1.00
10864;DHT22;5485;37.558;126.950;2023-04-19T06:21:04;27.70;1.00
10864;DHT22;5485;37.558;126.950;2023-04-19T06:23:31;27.80;1.00
10864;DHT22;5485;37.558;126.950;2023-04-19T06:25:58;27.80;1.00
10864;DHT22;5485;37.558;126.950;2023-04-19T06:28:25;27.80;1.00
10864;DHT22;5485;37.558;126.950;2023-04-19T06:30:52;27.80;1.00
10864;DHT22;5485;37.558;126.950;2023-04-19T06:33:19;27.70;1.00
10864;DHT22;5485;37.558;126.950;2023-04-19T06:35:46;27.80;1.00
10864;DHT22;5485;37.558;126.950;2023-04-19T06:38:13;27.80;1.00
10864;DHT22;5485;37.558;126.950;2023-04-19T06:40:40;27.90;1.00
10864;DHT22;5485;37.558;126.950;2023-04-19T06:43:07;27.80;1.00
10864;DHT22;5485;37.558;126.950;2023-04-19T06:45:34;27.70;1.00
10864;DHT22;5485;37.558;126.950;2023-04-19T06:48:01;27.60;1.00
10864;DHT22;5485;37.558;126.950;2023-04-19T06:50:28;27.70;1.00
10864;DHT22;5485;37.558;126.950;2023-04-19T06:52:55;27.70;1.00
10864;DHT22;5485;37.558;126.950;2023-04-19T06:55:22;27.80;1.00
10864;DHT22;5485;37.558;126.950;2023-04-19T06:57:52;27.90;1.00
10864;DHT22;5485;37.558;126.950;2023-04-19T07:00:19;27.90;1.00
10864;DHT22;5485;37.558;126.950;2023-04-19T07:02:47;27.70;1.00
10864;DHT22;5485;37.558;126.950;2023-04-19T07:05:14;27.80;1.00
10864;DHT22;5485;37.558;126.950;2023-04-19T07:07:48;27.80;1.00
10864;DHT22;5485;37.558;126.950;2023-04-19T07:10:15;27.70;1.00
10864;DHT22;5485;37.558;126.950;2023-04-19T07:12:42;27.70;1.00
10864;DHT22;5485;37.558;126.950;2023-04-19T07:15:09;27.80;1.00
10864;DHT22;5485;37.558;126.950;2023-04-19T07:17:36;27.80;1.00
10864;DHT22;5485;37.558;126.950;2023-04-19T07:20:04;27.90;1.00
10864;DHT22;5485;37.558;126.950;2023-04-19T07:22:32;27.60;1.00
10864;DHT22;5485;37.558;126.950;2023-04-19T07:24:59;27.60;1.00
10864;DHT22;5485;37.558;126.950;2023-04-19T07:27:26;27.70;1.00
10864;DHT22;5485;37.558;126.950;2023-04-19T07:29:53;27.80;1.00
10864;DHT22;5485;37.558;126.950;2023-04-19T07:32:20;27.80;1.00
10864;DHT22;5485;37.558;126.950;2023-04-19T07:34:47;27.80;1.00
10864;DHT22;5485;37.558;126.950;2023-04-19T07:37:14;27.70;1.00
10864;DHT22;5485;37.558;126.950;2023-04-19T07:39:41;27.80;1.00
10864;DHT22;5485;37.558;126.950;2023-04-19T07:42:08;27.70;1.00
10864;DHT22;5485;37.558;126.950;2023-04-19T07:44:34;27.70;1.00
10864;DHT22;5485;37.558;126.950;2023-04-19T07:47:03;27.70;1.00
10864;DHT22;5485;37.558;126.950;2023-04-19T07:49:31;27.80;1.00
10864;DHT22;5485;37.558;126.950;2023-04-19T07:52:00;27.80;1.00
10864;DHT22;5485;37.558;126.950;2023-04-19T07:54:28;27.30;1.00
10864;DHT22;5485;37.558;126.950;2023-04-19T07:56:57;27.00;1.00
10864;DHT22;5485;37.558;126.950;2023-04-19T07:59:27;26.80;1.00
10864;DHT22;5485;37.558;126.950;2023-04-19T08:01:54;26.50;1.00
10864;DHT22;5485;37.558;126.950;2023-04-19T08:04:21;26.50;1.00
10864;DHT22;5485;37.558;126.950;2023-04-19T08:06:48;26.40;1.00
10864;DHT22;5485;37.558;126.950;2023-04-19T08:09:15;26.40;1.00
10864;DHT22;5485;37.558;126.950;2023-04-19T08:11:41;26.30;1.00
10864;DHT22;5485;37.558;126.950;2023-04-19T08:14:12;26.30;1.00
10864;DHT22;5485;37.558;126.950;2023-04-19T08:16:38;26.30;1.00
10864;DHT22;5485;37.558;126.950;2023-04-19T08:19:06;26.10;1.00
10864;DHT22;5485;37.558;126.950;2023-04-19T08:21:33;25.90;1.00
10864;DHT22;5485;37.558;126.950;2023-04-19T08:24:00;25.80;1.00
10864;DHT22;5485;37.558;126.950;2023-04-19T08:26:30;25.70;1.00
10864;DHT22;5485;37.558;126.950;2023-04-19T08:28:58;25.60;1.00
10864;DHT22;5485;37.558;126.950;2023-04-19T08:31:25;25.50;1.00
10864;DHT22;5485;37.558;126.950;2023-04-19T08:33:52;25.40;1.00
10864;DHT22;5485;37.558;126.950;2023-04-19T08:36:19;25.30;1.00
10864;DHT22;5485;37.558;126.950;2023-04-19T08:38:47;25.40;1.00
10864;DHT22;5485;37.558;126.950;2023-04-19T08:41:14;25.40;1.00
10864;DHT22;5485;37.558;126.950;2023-04-19T08:43:43;25.10;1.00
10864;DHT22;5485;37.558;126.950;2023-04-19T08:46:11;25.10;1.00
10864;DHT22;5485;37.558;126.950;2023-04-19T08:48:40;25.00;1.00
10864;DHT22;5485;37.558;126.950;2023-04-19T08:51:07;24.90;1.00
10864;DHT22;5485;37.558;126.950;2023-04-19T08:53:36;24.80;1.00
10864;DHT22;5485;37.558;126.950;2023-04-19T08:56:07;24.70;1.00
10864;DHT22;5485;37.558;126.950;2023-04-19T08:58:36;24.60;1.00
10864;DHT22;5485;37.558;126.950;2023-04-19T09:01:07;24.40;1.00
10864;DHT22;5485;37.558;126.950;2023-04-19T09:03:37;24.30;1.00
10864;DHT22;5485;37.558;126.950;2023-04-19T09:06:08;24.30;1.00
10864;DHT22;5485;37.558;126.950;2023-04-19T09:08:38;24.30;1.00
10864;DHT22;5485;37.558;126.950;2023-04-19T09:11:06;24.30;1.00
10864;DHT22;5485;37.558;126.950;2023-04-19T09:13:33;24.20;1.00
10864;DHT22;5485;37.558;126.950;2023-04-19T09:16:03;24.00;1.00
10864;DHT22;5485;37.558;126.950;2023-04-19T09:18:31;23.90;1.00
10864;DHT22;5485;37.558;126.950;2023-04-19T09:20:58;23.70;1.00
10864;DHT22;5485;37.558;126.950;2023-04-19T09:23:27;23.60;1.00
10864;DHT22;5485;37.558;126.950;2023-04-19T09:25:57;23.50;1.00
10864;DHT22;5485;37.558;126.950;2023-04-19T09:28:28;23.40;1.00
10864;DHT22;5485;37.558;126.950;2023-04-19T09:30:56;23.10;1.00
10864;DHT22;5485;37.558;126.950;2023-04-19T09:36:00;22.80;1.00
10864;DHT22;5485;37.558;126.950;2023-04-19T09:38:27;22.70;1.00
10864;DHT22;5485;37.558;126.950;2023-04-19T09:41:21;22.50;1.00
10864;DHT22;5485;37.558;126.950;2023-04-19T09:43:48;22.40;1.00
10864;DHT22;5485;37.558;126.950;2023-04-19T09:46:34;22.30;1.00
10864;DHT22;5485;37.558;126.950;2023-04-19T09:49:14;22.00;1.00
10864;DHT22;5485;37.558;126.950;2023-04-19T09:51:46;21.80;1.00
10864;DHT22;5485;37.558;126.950;2023-04-19T09:54:15;21.70;1.00
10864;DHT22;5485;37.558;126.950;2023-04-19T09:56:42;21.50;1.00
10864;DHT22;5485;37.558;126.950;2023-04-19T09:59:10;21.40;1.00
10864;DHT22;5485;37.558;126.950;2023-04-19T10:01:47;21.30;1.00
10864;DHT22;5485;37.558;126.950;2023-04-19T10:04:15;21.10;1.00
10864;DHT22;5485;37.558;126.950;2023-04-19T10:06:50;21.00;1.00
10864;DHT22;5485;37.558;126.950;2023-04-19T10:09:18;20.90;1.00
10864;DHT22;5485;37.558;126.950;2023-04-19T10:11:50;20.80;1.00
10864;DHT22;5485;37.558;126.950;2023-04-19T10:14:24;20.70;1.00
10864;DHT22;5485;37.558;126.950;2023-04-19T10:16:53;20.60;1.00
10864;DHT22;5485;37.558;126.950;2023-04-19T10:19:22;20.50;1.00
10864;DHT22;5485;37.558;126.950;2023-04-19T10:21:50;20.40;1.00
10864;DHT22;5485;37.558;126.950;2023-04-19T10:24:17;20.30;1.00
10864;DHT22;5485;37.558;126.950;2023-04-19T10:27:10;20.20;1.00
10864;DHT22;5485;37.558;126.950;2023-04-19T10:30:00;20.10;1.00
10864;DHT22;5485;37.558;126.950;2023-04-19T10:32:39;20.00;1.00
10864;DHT22;5485;37.558;126.950;2023-04-19T10:35:16;19.90;1.00
10864;DHT22;5485;37.558;126.950;2023-04-19T10:38:13;19.80;1.00
10864;DHT22;5485;37.558;126.950;2023-04-19T10:43:22;19.60;1.00
10864;DHT22;5485;37.558;126.950;2023-04-19T10:45:49;19.50;1.00
10864;DHT22;5485;37.558;126.950;2023-04-19T10:48:32;19.50;1.00
10864;DHT22;5485;37.558;126.950;2023-04-19T10:53:45;19.40;1.00
10864;DHT22;5485;37.558;126.950;2023-04-19T10:56:13;19.30;1.00
10864;DHT22;5485;37.558;126.950;2023-04-19T11:01:39;19.10;1.00
10864;DHT22;5485;37.558;126.950;2023-04-19T11:04:14;19.10;1.00
10864;DHT22;5485;37.558;126.950;2023-04-19T11:09:38;18.90;1.00
10864;DHT22;5485;37.558;126.950;2023-04-19T11:12:09;18.90;1.00
10864;DHT22;5485;37.558;126.950;2023-04-19T11:14:41;18.80;1.00
10864;DHT22;5485;37.558;126.950;2023-04-19T11:17:22;18.80;1.00
10864;DHT22;5485;37.558;126.950;2023-04-19T11:19:58;18.70;1.00
10864;DHT22;5485;37.558;126.950;2023-04-19T11:22:36;18.70;1.00
10864;DHT22;5485;37.558;126.950;2023-04-19T11:25:13;18.60;1.00
10864;DHT22;5485;37.558;126.950;2023-04-19T11:27:44;18.50;1.00
10864;DHT22;5485;37.558;126.950;2023-04-19T11:30:30;18.40;1.00
10864;DHT22;5485;37.558;126.950;2023-04-19T11:32:58;18.40;1.00
10864;DHT22;5485;37.558;126.950;2023-04-19T11:35:27;18.30;1.00
10864;DHT22;5485;37.558;126.950;2023-04-19T11:37:57;18.20;1.00
10864;DHT22;5485;37.558;126.950;2023-04-19T11:40:25;18.20;1.00
10864;DHT22;5485;37.558;126.950;2023-04-19T11:42:57;18.10;1.00
10864;DHT22;5485;37.558;126.950;2023-04-19T11:45:35;18.10;1.00
10864;DHT22;5485;37.558;126.950;2023-04-19T11:48:04;18.00;1.00
10864;DHT22;5485;37.558;126.950;2023-04-19T11:50:39;18.00;1.00
10864;DHT22;5485;37.558;126.950;2023-04-19T11:53:21;17.90;1.00
10864;DHT22;5485;37.558;126.950;2023-04-19T11:55:57;17.90;1.00
10864;DHT22;5485;37.558;126.950;2023-04-19T11:58:51;17.80;1.00
10864;DHT22;5485;37.558;126.950;2023-04-19T12:01:20;17.80;1.00
10864;DHT22;5485;37.558;126.950;2023-04-19T12:03:54;17.80;1.00
10864;DHT22;5485;37.558;126.950;2023-04-19T12:08:54;17.90;1.00
10864;DHT22;5485;37.558;126.950;2023-04-19T12:11:23;17.90;1.00
10864;DHT22;5485;37.558;126.950;2023-04-19T12:14:10;17.90;1.00
10864;DHT22;5485;37.558;126.950;2023-04-19T12:16:38;17.90;1.00
10864;DHT22;5485;37.558;126.950;2023-04-19T12:19:15;17.90;1.00
10864;DHT22;5485;37.558;126.950;2023-04-19T12:21:43;17.90;1.00
10864;DHT22;5485;37.558;126.950;2023-04-19T12:24:11;17.80;1.00
10864;DHT22;5485;37.558;126.950;2023-04-19T12:26:54;17.70;1.00
10864;DHT22;5485;37.558;126.950;2023-04-19T12:29:26;17.70;1.00
10864;DHT22;5485;37.558;126.950;2023-04-19T12:31:53;17.60;1.00
10864;DHT22;5485;37.558;126.950;2023-04-19T12:34:20;17.60;1.00
10864;DHT22;5485;37.558;126.950;2023-04-19T12:36:47;17.50;1.00
10864;DHT22;5485;37.558;126.950;2023-04-19T12:39:17;17.50;1.00
10864;DHT22;5485;37.558;126.950;2023-04-19T12:41:44;17.50;1.00
10864;DHT22;5485;37.558;126.950;2023-04-19T12:44:14;17.50;1.00
10864;DHT22;5485;37.558;126.950;2023-04-19T12:46:41;17.50;1.00
10864;DHT22;5485;37.558;126.950;2023-04-19T12:49:08;17.50;1.00
10864;DHT22;5485;37.558;126.950;2023-04-19T12:51:35;17.50;1.00
10864;DHT22;5485;37.558;126.950;2023-04-19T12:54:02;17.50;1.00
10864;DHT22;5485;37.558;126.950;2023-04-19T12:56:29;17.50;1.00
10864;DHT22;5485;37.558;126.950;2023-04-19T12:58:56;17.50;1.00
10864;DHT22;5485;37.558;126.950;2023-04-19T13:01:23;17.50;1.00
10864;DHT22;5485;37.558;126.950;2023-04-19T13:03:50;17.60;1.00
10864;DHT22;5485;37.558;126.950;2023-04-19T13:06:17;17.70;1.00
10864;DHT22;5485;37.558;126.950;2023-04-19T13:08:46;17.80;1.00
10864;DHT22;5485;37.558;126.950;2023-04-19T13:11:15;17.80;1.00
10864;DHT22;5485;37.558;126.950;2023-04-19T13:13:48;17.80;1.00
10864;DHT22;5485;37.558;126.950;2023-04-19T13:16:17;17.70;1.00
10864;DHT22;5485;37.558;126.950;2023-04-19T13:18:44;17.70;1.00
10864;DHT22;5485;37.558;126.950;2023-04-19T13:21:11;17.70;1.00
10864;DHT22;5485;37.558;126.950;2023-04-19T13:23:38;17.70;1.00
10864;DHT22;5485;37.558;126.950;2023-04-19T13:26:05;17.70;1.00
10864;DHT22;5485;37.558;126.950;2023-04-19T13:28:32;17.70;1.00
10864;DHT22;5485;37.558;126.950;2023-04-19T13:31:02;17.70;1.00
10864;DHT22;5485;37.558;126.950;2023-04-19T13:33:29;17.80;1.00
10864;DHT22;5485;37.558;126.950;2023-04-19T13:35:57;17.90;1.00
10864;DHT22;5485;37.558;126.950;2023-04-19T13:38:24;17.90;1.00
10864;DHT22;5485;37.558;126.950;2023-04-19T13:40:51;17.90;1.00
10864;DHT22;5485;37.558;126.950;2023-04-19T13:43:18;18.00;1.00
10864;DHT22;5485;37.558;126.950;2023-04-19T13:45:45;18.10;1.00
10864;DHT22;5485;37.558;126.950;2023-04-19T13:48:12;18.20;1.00
10864;DHT22;5485;37.558;126.950;2023-04-19T13:50:39;18.30;1.00
10864;DHT22;5485;37.558;126.950;2023-04-19T13:53:06;18.30;1.00
10864;DHT22;5485;37.558;126.950;2023-04-19T13:55:33;18.40;1.00
10864;DHT22;5485;37.558;126.950;2023-04-19T13:58:00;18.40;1.00
10864;DHT22;5485;37.558;126.950;2023-04-19T14:00:27;18.50;1.00
10864;DHT22;5485;37.558;126.950;2023-04-19T14:02:54;18.60;1.00
10864;DHT22;5485;37.558;126.950;2023-04-19T14:05:22;18.70;1.00
10864;DHT22;5485;37.558;126.950;2023-04-19T14:07:49;18.80;18.80
10864;DHT22;5485;37.558;126.950;2023-04-19T14:10:17;18.90;25.30
10864;DHT22;5485;37.558;126.950;2023-04-19T14:12:45;18.90;38.10
10864;DHT22;5485;37.558;126.950;2023-04-19T14:15:12;18.90;58.80
10864;DHT22;5485;37.558;126.950;2023-04-19T14:17:39;18.90;65.80
10864;DHT22;5485;37.558;126.950;2023-04-19T14:20:06;18.90;65.60
10864;DHT22;5485;37.558;126.950;2023-04-19T14:22:33;19.00;76.10
10864;DHT22;5485;37.558;126.950;2023-04-19T14:25:01;19.00;92.40
10864;DHT22;5485;37.558;126.950;2023-04-19T14:27:29;19.10;99.40
10864;DHT22;5485;37.558;126.950;2023-04-19T14:29:56;19.00;99.90
10864;DHT22;5485;37.558;126.950;2023-04-19T14:32:23;19.00;99.90
10864;DHT22;5485;37.558;126.950;2023-04-19T14:34:50;19.00;99.90
10864;DHT22;5485;37.558;126.950;2023-04-19T14:37:21;19.10;99.90
10864;DHT22;5485;37.558;126.950;2023-04-19T14:39:48;19.10;99.90
10864;DHT22;5485;37.558;126.950;2023-04-19T14:42:15;19.00;99.90
10864;DHT22;5485;37.558;126.950;2023-04-19T14:44:42;19.00;99.90
10864;DHT22;5485;37.558;126.950;2023-04-19T14:47:11;19.00;99.90
10864;DHT22;5485;37.558;126.950;2023-04-19T14:49:38;19.00;99.90
10864;DHT22;5485;37.558;126.950;2023-04-19T14:52:05;19.00;99.90
10864;DHT22;5485;37.558;126.950;2023-04-19T14:54:32;19.00;99.90
10864;DHT22;5485;37.558;126.950;2023-04-19T14:56:59;18.90;99.90
10864;DHT22;5485;37.558;126.950;2023-04-19T14:59:27;18.90;99.90
10864;DHT22;5485;37.558;126.950;2023-04-19T15:01:54;19.00;99.90
10864;DHT22;5485;37.558;126.950;2023-04-19T15:04:21;18.90;99.90
10864;DHT22;5485;37.558;126.950;2023-04-19T15:06:48;18.90;99.90
10864;DHT22;5485;37.558;126.950;2023-04-19T15:09:15;18.80;99.90
10864;DHT22;5485;37.558;126.950;2023-04-19T15:11:43;18.80;99.90
10864;DHT22;5485;37.558;126.950;2023-04-19T15:14:10;18.80;99.90
10864;DHT22;5485;37.558;126.950;2023-04-19T15:16:37;18.80;99.90
10864;DHT22;5485;37.558;126.950;2023-04-19T15:19:04;18.70;99.90
10864;DHT22;5485;37.558;126.950;2023-04-19T15:21:32;18.70;99.90
10864;DHT22;5485;37.558;126.950;2023-04-19T15:23:59;18.70;99.90
10864;DHT22;5485;37.558;126.950;2023-04-19T15:26:27;18.70;99.90
10864;DHT22;5485;37.558;126.950;2023-04-19T15:28:54;18.60;99.90
10864;DHT22;5485;37.558;126.950;2023-04-19T15:31:23;18.60;99.90
10864;DHT22;5485;37.558;126.950;2023-04-19T15:33:50;18.50;99.90
10864;DHT22;5485;37.558;126.950;2023-04-19T15:36:17;18.50;99.90
10864;DHT22;5485;37.558;126.950;2023-04-19T15:38:44;18.40;99.90
10864;DHT22;5485;37.558;126.950;2023-04-19T15:41:11;18.40;99.90
10864;DHT22;5485;37.558;126.950;2023-04-19T15:43:38;18.40;99.90
10864;DHT22;5485;37.558;126.950;2023-04-19T15:46:05;18.40;99.90
10864;DHT22;5485;37.558;126.950;2023-04-19T15:48:31;18.30;99.90
10864;DHT22;5485;37.558;126.950;2023-04-19T15:50:58;18.10;99.90
10864;DHT22;5485;37.558;126.950;2023-04-19T15:53:27;18.10;99.90